sensor_id;sensor_type;location;lat;lon;timestamp;temperature;humidity
19174;DHT22;9719;49.322;8.536;2023-04-03T00:00:30;3.80;99.90
19174;DHT22;9719;49.322;8.536;2023-04-03T00:05:32;3.60;99.90
19174;DHT22;9719;49.322;8.536;2023-04-03T00:10:36;3.40;99.90
19174;DHT22;9719;49.322;8.536;2023-04-03T00:15:39;3.20;99.90
19174;DHT22;9719;49.322;8.536;2023-04-03T00:20:41;3.00;99.90
19174;DHT22;9719;49.322;8.536;2023-04-03T00:25:44;3.00;99.90
19174;DHT22;9719;49.322;8.536;2023-04-03T00:30:46;2.90;99.90
19174;DHT22;9719;49.322;8.536;2023-04-03T00:35:50;2.90;99.90
19174;DHT22;9719;49.322;8.536;2023-04-03T00:40:53;2.90;99.90
19174;DHT22;9719;49.322;8.536;2023-04-03T00:45:56;2.90;99.90
19174;DHT22;9719;49.322;8.536;2023-04-03T00:50:58;2.80;99.90
19174;DHT22;9719;49.322;8.536;2023-04-03T00:56:05;2.80;99.90
19174;DHT22;9719;49.322;8.536;2023-04-03T01:01:11;2.80;99.90
19174;DHT22;9719;49.322;8.536;2023-04-03T01:06:16;2.60;99.90
19174;DHT22;9719;49.322;8.536;2023-04-03T01:11:20;2.60;99.90
19174;DHT22;9719;49.322;8.536;2023-04-03T01:16:22;2.60;99.90
19174;DHT22;9719;49.322;8.536;2023-04-03T01:21:47;2.60;99.90
19174;DHT22;9719;49.322;8.536;2023-04-03T01:26:53;2.60;99.90
19174;DHT22;9719;49.322;8.536;2023-04-03T01:31:58;2.60;99.90
19174;DHT22;9719;49.322;8.536;2023-04-03T01:37:00;2.50;99.90
19174;DHT22;9719;49.322;8.536;2023-04-03T01:42:02;2.40;99.90
19174;DHT22;9719;49.322;8.536;2023-04-03T01:47:07;2.40;99.90
19174;DHT22;9719;49.322;8.536;2023-04-03T01:52:08;2.40;99.90
19174;DHT22;9719;49.322;8.536;2023-04-03T01:57:10;2.40;99.90
19174;DHT22;9719;49.322;8.536;2023-04-03T02:02:15;2.30;99.90
19174;DHT22;9719;49.322;8.536;2023-04-03T02:07:17;2.30;99.90
19174;DHT22;9719;49.322;8.536;2023-04-03T02:12:19;2.30;99.90
19174;DHT22;9719;49.322;8.536;2023-04-03T02:17:22;2.20;99.90
19174;DHT22;9719;49.322;8.536;2023-04-03T02:22:24;2.20;99.90
19174;DHT22;9719;49.322;8.536;2023-04-03T02:27:27;2.20;99.90
19174;DHT22;9719;49.322;8.536;2023-04-03T02:32:30;2.30;99.90
19174;DHT22;9719;49.322;8.536;2023-04-03T02:37:32;2.50;99.90
19174;DHT22;9719;49.322;8.536;2023-04-03T02:42:35;2.70;99.90
19174;DHT22;9719;49.322;8.536;2023-04-03T02:47:38;2.90;99.90
19174;DHT22;9719;49.322;8.536;2023-04-03T02:52:41;3.00;99.90
19174;DHT22;9719;49.322;8.536;2023-04-03T02:57:43;3.10;99.90
19174;DHT22;9719;49.322;8.536;2023-04-03T03:02:46;3.20;99.90
19174;DHT22;9719;49.322;8.536;2023-04-03T03:07:48;3.20;99.90
19174;DHT22;9719;49.322;8.536;2023-04-03T03:12:50;3.20;99.90
19174;DHT22;9719;49.322;8.536;2023-04-03T03:17:53;3.20;99.90
19174;DHT22;9719;49.322;8.536;2023-04-03T03:22:55;3.30;99.90
19174;DHT22;9719;49.322;8.536;2023-04-03T03:27:57;3.30;99.90
19174;DHT22;9719;49.322;8.536;2023-04-03T03:33:00;3.20;99.90
19174;DHT22;9719;49.322;8.536;2023-04-03T03:38:02;3.20;99.90
19174;DHT22;9719;49.322;8.536;2023-04-03T03:43:04;3.10;99.90
19174;DHT22;9719;49.322;8.536;2023-04-03T03:48:07;2.90;99.90
19174;DHT22;9719;49.322;8.536;2023-04-03T03:53:09;2.70;99.90
19174;DHT22;9719;49.322;8.536;2023-04-03T03:58:11;2.50;99.90
19174;DHT22;9719;49.322;8.536;2023-04-03T04:03:15;2.30;99.90
19174;DHT22;9719;49.322;8.536;2023-04-03T04:08:17;2.20;99.90
19174;DHT22;9719;49.322;8.536;2023-04-03T04:13:19;2.10;99.90
19174;DHT22;9719;49.322;8.536;2023-04-03T04:18:22;2.10;99.90
19174;DHT22;9719;49.322;8.536;2023-04-03T04:23:24;2.00;99.90
19174;DHT22;9719;49.322;8.536;2023-04-03T04:28:26;2.00;99.90
19174;DHT22;9719;49.322;8.536;2023-04-03T04:33:30;1.90;99.90
19174;DHT22;9719;49.322;8.536;2023-04-03T04:38:31;1.80;99.90
19174;DHT22;9719;49.322;8.536;2023-04-03T04:43:33;1.80;99.90
19174;DHT22;9719;49.322;8.536;2023-04-03T04:48:37;1.70;99.90
19174;DHT22;9719;49.322;8.536;2023-04-03T04:53:39;1.70;99.90
19174;DHT22;9719;49.322;8.536;2023-04-03T04:58:40;1.60;99.90
19174;DHT22;9719;49.322;8.536;2023-04-03T05:03:44;1.50;99.90
19174;DHT22;9719;49.322;8.536;2023-04-03T05:08:46;1.50;99.90
19174;DHT22;9719;49.322;8.536;2023-04-03T05:13:48;1.50;99.90
19174;DHT22;9719;49.322;8.536;2023-04-03T05:18:51;1.70;99.90
19174;DHT22;9719;49.322;8.536;2023-04-03T05:23:53;1.90;99.90
19174;DHT22;9719;49.322;8.536;2023-04-03T05:28:55;2.10;99.90
19174;DHT22;9719;49.322;8.536;2023-04-03T05:33:58;2.30;99.90
19174;DHT22;9719;49.322;8.536;2023-04-03T05:39:00;2.40;99.90
19174;DHT22;9719;49.322;8.536;2023-04-03T05:44:02;2.80;99.90
19174;DHT22;9719;49.322;8.536;2023-04-03T05:49:06;3.10;99.90
19174;DHT22;9719;49.322;8.536;2023-04-03T05:54:12;3.30;99.90
19174;DHT22;9719;49.322;8.536;2023-04-03T05:59:15;3.50;99.90
19174;DHT22;9719;49.322;8.536;2023-04-03T06:04:18;3.70;99.90
19174;DHT22;9719;49.322;8.536;2023-04-03T06:09:22;3.90;99.90
19174;DHT22;9719;49.322;8.536;2023-04-03T06:14:26;4.20;99.90
19174;DHT22;9719;49.322;8.536;2023-04-03T06:19:29;4.40;99.90
19174;DHT22;9719;49.322;8.536;2023-04-03T06:24:31;4.60;99.90
19174;DHT22;9719;49.322;8.536;2023-04-03T06:29:33;4.70;99.90
19174;DHT22;9719;49.322;8.536;2023-04-03T06:34:36;4.90;99.90
19174;DHT22;9719;49.322;8.536;2023-04-03T06:39:38;5.00;99.90
19174;DHT22;9719;49.322;8.536;2023-04-03T06:44:40;5.20;99.90
19174;DHT22;9719;49.322;8.536;2023-04-03T06:49:44;5.30;99.90
19174;DHT22;9719;49.322;8.536;2023-04-03T06:54:46;5.50;99.90
19174;DHT22;9719;49.322;8.536;2023-04-03T06:59:48;5.70;99.90
19174;DHT22;9719;49.322;8.536;2023-04-03T07:04:52;6.00;99.90
19174;DHT22;9719;49.322;8.536;2023-04-03T07:09:53;6.20;99.90
19174;DHT22;9719;49.322;8.536;2023-04-03T07:14:55;6.30;99.90
19174;DHT22;9719;49.322;8.536;2023-04-03T07:19:58;6.50;99.90
19174;DHT22;9719;49.322;8.536;2023-04-03T07:25:00;6.70;99.90
19174;DHT22;9719;49.322;8.536;2023-04-03T07:30:03;6.90;99.90
19174;DHT22;9719;49.322;8.536;2023-04-03T07:35:08;7.10;99.90
19174;DHT22;9719;49.322;8.536;2023-04-03T07:40:11;7.30;99.90
19174;DHT22;9719;49.322;8.536;2023-04-03T07:45:13;7.50;99.90
19174;DHT22;9719;49.322;8.536;2023-04-03T07:50:17;7.60;99.90
19174;DHT22;9719;49.322;8.536;2023-04-03T07:55:19;7.70;99.90
19174;DHT22;9719;49.322;8.536;2023-04-03T08:00:21;7.80;99.90
19174;DHT22;9719;49.322;8.536;2023-04-03T08:05:24;8.00;99.90
19174;DHT22;9719;49.322;8.536;2023-04-03T08:10:26;8.10;99.90
19174;DHT22;9719;49.322;8.536;2023-04-03T08:15:30;8.30;99.90
19174;DHT22;9719;49.322;8.536;2023-04-03T08:20:33;8.50;99.90
19174;DHT22;9719;49.322;8.536;2023-04-03T08:25:37;8.60;99.90
19174;DHT22;9719;49.322;8.536;2023-04-03T08:30:40;8.80;99.90
19174;DHT22;9719;49.322;8.536;2023-04-03T08:35:44;8.90;99.90
19174;DHT22;9719;49.322;8.536;2023-04-03T08:40:45;9.00;99.90
19174;DHT22;9719;49.322;8.536;2023-04-03T08:45:50;9.20;99.90
19174;DHT22;9719;49.322;8.536;2023-04-03T08:50:56;9.40;99.90
19174;DHT22;9719;49.322;8.536;2023-04-03T08:56:02;9.90;99.90
19174;DHT22;9719;49.322;8.536;2023-04-03T09:01:17;10.40;99.90
19174;DHT22;9719;49.322;8.536;2023-04-03T09:06:25;10.60;96.90
19174;DHT22;9719;49.322;8.536;2023-04-03T09:11:38;10.80;97.20
19174;DHT22;9719;49.322;8.536;2023-04-03T09:16:50;11.60;94.60
19174;DHT22;9719;49.322;8.536;2023-04-03T09:21:56;12.30;93.10
19174;DHT22;9719;49.322;8.536;2023-04-03T09:27:01;12.90;92.20
19174;DHT22;9719;49.322;8.536;2023-04-03T09:32:19;13.80;90.50
19174;DHT22;9719;49.322;8.536;2023-04-03T09:37:42;14.80;80.00
19174;DHT22;9719;49.322;8.536;2023-04-03T09:42:46;20.70;81.50
19174;DHT22;9719;49.322;8.536;2023-04-03T09:47:49;22.70;72.90
19174;DHT22;9719;49.322;8.536;2023-04-03T09:53:12;27.50;68.70
19174;DHT22;9719;49.322;8.536;2023-04-03T09:58:29;29.30;53.90
19174;DHT22;9719;49.322;8.536;2023-04-03T10:03:32;31.80;47.20
19174;DHT22;9719;49.322;8.536;2023-04-03T10:08:37;33.10;42.60
19174;DHT22;9719;49.322;8.536;2023-04-03T10:13:54;32.40;38.30
19174;DHT22;9719;49.322;8.536;2023-04-03T10:19:13;34.70;34.90
19174;DHT22;9719;49.322;8.536;2023-04-03T10:24:23;32.20;31.40
19174;DHT22;9719;49.322;8.536;2023-04-03T10:29:38;28.90;33.40
19174;DHT22;9719;49.322;8.536;2023-04-03T10:34:43;26.10;33.80
19174;DHT22;9719;49.322;8.536;2023-04-03T10:39:54;23.70;36.80
19174;DHT22;9719;49.322;8.536;2023-04-03T10:45:19;22.60;39.00
19174;DHT22;9719;49.322;8.536;2023-04-03T10:50:27;22.20;39.00
19174;DHT22;9719;49.322;8.536;2023-04-03T10:55:36;21.60;39.70
19174;DHT22;9719;49.322;8.536;2023-04-03T11:00:42;20.90;39.80
19174;DHT22;9719;49.322;8.536;2023-04-03T11:05:47;20.00;40.70
19174;DHT22;9719;49.322;8.536;2023-04-03T11:10:52;23.60;41.10
19174;DHT22;9719;49.322;8.536;2023-04-03T11:15:56;25.80;37.00
19174;DHT22;9719;49.322;8.536;2023-04-03T11:21:02;24.60;35.70
19174;DHT22;9719;49.322;8.536;2023-04-03T11:26:11;23.20;36.50
19174;DHT22;9719;49.322;8.536;2023-04-03T11:31:26;22.10;36.90
19174;DHT22;9719;49.322;8.536;2023-04-03T11:36:32;21.20;38.50
19174;DHT22;9719;49.322;8.536;2023-04-03T11:41:36;21.00;39.60
19174;DHT22;9719;49.322;8.536;2023-04-03T11:46:52;21.50;39.50
19174;DHT22;9719;49.322;8.536;2023-04-03T11:51:55;24.80;39.00
19174;DHT22;9719;49.322;8.536;2023-04-03T11:56:58;25.00;35.30
19174;DHT22;9719;49.322;8.536;2023-04-03T12:02:00;25.10;36.70
19174;DHT22;9719;49.322;8.536;2023-04-03T12:07:15;25.00;35.40
19174;DHT22;9719;49.322;8.536;2023-04-03T12:12:30;24.20;35.30
19174;DHT22;9719;49.322;8.536;2023-04-03T12:17:33;24.60;34.60
19174;DHT22;9719;49.322;8.536;2023-04-03T12:22:35;23.40;35.50
19174;DHT22;9719;49.322;8.536;2023-04-03T12:27:42;22.50;35.80
19174;DHT22;9719;49.322;8.536;2023-04-03T12:32:56;21.80;37.90
19174;DHT22;9719;49.322;8.536;2023-04-03T12:38:21;21.20;37.80
19174;DHT22;9719;49.322;8.536;2023-04-03T12:43:44;20.80;39.10
19174;DHT22;9719;49.322;8.536;2023-04-03T12:48:51;20.10;39.00
19174;DHT22;9719;49.322;8.536;2023-04-03T12:54:00;21.40;40.70
19174;DHT22;9719;49.322;8.536;2023-04-03T12:59:15;21.20;39.40
19174;DHT22;9719;49.322;8.536;2023-04-03T13:04:17;20.90;40.10
19174;DHT22;9719;49.322;8.536;2023-04-03T13:09:22;20.50;39.80
19174;DHT22;9719;49.322;8.536;2023-04-03T13:14:28;20.20;39.40
19174;DHT22;9719;49.322;8.536;2023-04-03T13:19:31;22.10;40.20
19174;DHT22;9719;49.322;8.536;2023-04-03T13:24:35;24.50;39.20
19174;DHT22;9719;49.322;8.536;2023-04-03T13:29:39;24.90;35.00
19174;DHT22;9719;49.322;8.536;2023-04-03T13:34:43;23.70;35.60
19174;DHT22;9719;49.322;8.536;2023-04-03T13:39:45;22.60;36.70
19174;DHT22;9719;49.322;8.536;2023-04-03T13:45:17;21.30;37.90
19174;DHT22;9719;49.322;8.536;2023-04-03T13:50:22;20.90;38.40
19174;DHT22;9719;49.322;8.536;2023-04-03T13:55:27;21.20;39.00
19174;DHT22;9719;49.322;8.536;2023-04-03T14:00:36;20.40;38.40
19174;DHT22;9719;49.322;8.536;2023-04-03T14:05:39;20.90;40.60
19174;DHT22;9719;49.322;8.536;2023-04-03T14:10:42;27.80;39.10
19174;DHT22;9719;49.322;8.536;2023-04-03T14:15:46;34.20;33.80
19174;DHT22;9719;49.322;8.536;2023-04-03T14:20:49;38.20;30.00
19174;DHT22;9719;49.322;8.536;2023-04-03T14:25:51;37.30;27.50
19174;DHT22;9719;49.322;8.536;2023-04-03T14:30:54;33.80;27.10
19174;DHT22;9719;49.322;8.536;2023-04-03T14:35:56;29.90;28.50
19174;DHT22;9719;49.322;8.536;2023-04-03T14:40:58;26.30;29.30
19174;DHT22;9719;49.322;8.536;2023-04-03T14:46:02;26.20;31.80
19174;DHT22;9719;49.322;8.536;2023-04-03T14:51:04;30.50;30.40
19174;DHT22;9719;49.322;8.536;2023-04-03T14:56:11;34.10;28.90
19174;DHT22;9719;49.322;8.536;2023-04-03T15:01:14;34.00;26.50
19174;DHT22;9719;49.322;8.536;2023-04-03T15:06:16;30.30;26.90
19174;DHT22;9719;49.322;8.536;2023-04-03T15:11:18;26.70;27.60
19174;DHT22;9719;49.322;8.536;2023-04-03T15:16:22;24.10;29.30
19174;DHT22;9719;49.322;8.536;2023-04-03T15:21:24;21.80;30.70
19174;DHT22;9719;49.322;8.536;2023-04-03T15:26:26;20.50;32.40
19174;DHT22;9719;49.322;8.536;2023-04-03T15:31:29;19.70;33.40
19174;DHT22;9719;49.322;8.536;2023-04-03T15:36:32;18.90;35.30
19174;DHT22;9719;49.322;8.536;2023-04-03T15:41:34;17.80;35.40
19174;DHT22;9719;49.322;8.536;2023-04-03T15:46:37;16.80;36.70
19174;DHT22;9719;49.322;8.536;2023-04-03T15:51:40;16.10;38.00
19174;DHT22;9719;49.322;8.536;2023-04-03T15:56:42;15.20;38.50
19174;DHT22;9719;49.322;8.536;2023-04-03T16:01:45;14.60;39.50
19174;DHT22;9719;49.322;8.536;2023-04-03T16:06:48;14.50;40.40
19174;DHT22;9719;49.322;8.536;2023-04-03T16:11:50;14.50;40.80
19174;DHT22;9719;49.322;8.536;2023-04-03T16:16:54;14.00;41.40
19174;DHT22;9719;49.322;8.536;2023-04-03T16:21:57;13.40;42.50
19174;DHT22;9719;49.322;8.536;2023-04-03T16:26:59;12.50;43.80
19174;DHT22;9719;49.322;8.536;2023-04-03T16:32:03;11.80;44.40
19174;DHT22;9719;49.322;8.536;2023-04-03T16:37:06;11.20;45.30
19174;DHT22;9719;49.322;8.536;2023-04-03T16:42:08;10.70;45.70
19174;DHT22;9719;49.322;8.536;2023-04-03T16:47:12;10.30;46.70
19174;DHT22;9719;49.322;8.536;2023-04-03T16:52:14;10.00;47.70
19174;DHT22;9719;49.322;8.536;2023-04-03T16:57:16;9.90;49.20
19174;DHT22;9719;49.322;8.536;2023-04-03T17:02:20;9.80;49.80
19174;DHT22;9719;49.322;8.536;2023-04-03T17:07:25;9.80;49.50
19174;DHT22;9719;49.322;8.536;2023-04-03T17:12:27;9.60;49.40
19174;DHT22;9719;49.322;8.536;2023-04-03T17:17:30;9.40;50.10
19174;DHT22;9719;49.322;8.536;2023-04-03T17:22:32;9.20;50.20
19174;DHT22;9719;49.322;8.536;2023-04-03T17:27:35;8.90;51.50
19174;DHT22;9719;49.322;8.536;2023-04-03T17:32:38;8.70;51.60
19174;DHT22;9719;49.322;8.536;2023-04-03T17:37:40;8.50;52.40
19174;DHT22;9719;49.322;8.536;2023-04-03T17:42:42;8.20;52.70
19174;DHT22;9719;49.322;8.536;2023-04-03T17:47:45;8.00;53.20
19174;DHT22;9719;49.322;8.536;2023-04-03T17:52:49;7.70;53.30
19174;DHT22;9719;49.322;8.536;2023-04-03T17:57:51;7.40;53.90
19174;DHT22;9719;49.322;8.536;2023-04-03T18:02:54;7.20;54.90
19174;DHT22;9719;49.322;8.536;2023-04-03T18:07:57;7.00;55.40
19174;DHT22;9719;49.322;8.536;2023-04-03T18:13:00;6.80;55.90
19174;DHT22;9719;49.322;8.536;2023-04-03T18:18:04;6.60;56.30
19174;DHT22;9719;49.322;8.536;2023-04-03T18:23:06;6.40;56.60
19174;DHT22;9719;49.322;8.536;2023-04-03T18:40:05;5.80;58.60
19174;DHT22;9719;49.322;8.536;2023-04-03T18:45:08;5.60;59.50
19174;DHT22;9719;49.322;8.536;2023-04-03T18:50:11;5.40;59.30
19174;DHT22;9719;49.322;8.536;2023-04-03T18:55:15;5.30;59.70
19174;DHT22;9719;49.322;8.536;2023-04-03T19:00:18;5.10;60.20
19174;DHT22;9719;49.322;8.536;2023-04-03T19:05:20;5.00;61.10
19174;DHT22;9719;49.322;8.536;2023-04-03T19:10:24;4.80;61.40
19174;DHT22;9719;49.322;8.536;2023-04-03T19:15:26;4.70;62.10
19174;DHT22;9719;49.322;8.536;2023-04-03T19:20:28;4.50;62.80
19174;DHT22;9719;49.322;8.536;2023-04-03T19:25:31;4.40;63.60
19174;DHT22;9719;49.322;8.536;2023-04-03T19:30:33;4.30;64.60
19174;DHT22;9719;49.322;8.536;2023-04-03T19:35:35;4.20;66.40
19174;DHT22;9719;49.322;8.536;2023-04-03T19:40:41;4.30;66.10
19174;DHT22;9719;49.322;8.536;2023-04-03T19:45:44;4.20;67.00
19174;DHT22;9719;49.322;8.536;2023-04-03T19:50:46;4.20;67.80
19174;DHT22;9719;49.322;8.536;2023-04-03T19:55:49;4.20;68.60
19174;DHT22;9719;49.322;8.536;2023-04-03T20:00:51;4.20;68.50
19174;DHT22;9719;49.322;8.536;2023-04-03T20:05:52;4.20;68.60
19174;DHT22;9719;49.322;8.536;2023-04-03T20:10:55;4.30;69.40
19174;DHT22;9719;49.322;8.536;2023-04-03T20:16:01;4.30;69.40
19174;DHT22;9719;49.322;8.536;2023-04-03T20:21:04;4.30;69.40
19174;DHT22;9719;49.322;8.536;2023-04-03T20:26:08;4.20;69.80
19174;DHT22;9719;49.322;8.536;2023-04-03T20:31:09;4.10;70.50
19174;DHT22;9719;49.322;8.536;2023-04-03T20:36:13;4.10;71.30
19174;DHT22;9719;49.322;8.536;2023-04-03T20:41:17;4.00;72.60
19174;DHT22;9719;49.322;8.536;2023-04-03T20:46:19;4.00;72.60
19174;DHT22;9719;49.322;8.536;2023-04-03T20:51:23;4.00;72.40
19174;DHT22;9719;49.322;8.536;2023-04-03T20:56:29;4.00;72.80
19174;DHT22;9719;49.322;8.536;2023-04-03T21:01:32;3.90;73.10
19174;DHT22;9719;49.322;8.536;2023-04-03T21:23:17;3.80;74.70
19174;DHT22;9719;49.322;8.536;2023-04-03T21:28:20;3.80;74.60
19174;DHT22;9719;49.322;8.536;2023-04-03T21:33:23;3.80;75.10
19174;DHT22;9719;49.322;8.536;2023-04-03T21:38:25;3.70;75.60
19174;DHT22;9719;49.322;8.536;2023-04-03T21:43:27;3.60;75.10
19174;DHT22;9719;49.322;8.536;2023-04-03T21:48:30;3.60;76.30
19174;DHT22;9719;49.322;8.536;2023-04-03T21:53:32;3.60;76.90
19174;DHT22;9719;49.322;8.536;2023-04-03T21:58:34;3.60;76.50
19174;DHT22;9719;49.322;8.536;2023-04-03T22:03:38;3.60;76.80
19174;DHT22;9719;49.322;8.536;2023-04-03T22:08:41;3.60;76.60
19174;DHT22;9719;49.322;8.536;2023-04-03T22:13:43;3.60;77.10
19174;DHT22;9719;49.322;8.536;2023-04-03T22:18:46;3.60;77.80
19174;DHT22;9719;49.322;8.536;2023-04-03T22:23:48;3.60;77.20
19174;DHT22;9719;49.322;8.536;2023-04-03T22:28:49;3.50;77.20
19174;DHT22;9719;49.322;8.536;2023-04-03T22:33:52;3.40;77.70
19174;DHT22;9719;49.322;8.536;2023-04-03T22:38:55;3.40;77.90
19174;DHT22;9719;49.322;8.536;2023-04-03T22:43:57;3.30;78.20
19174;DHT22;9719;49.322;8.536;2023-04-03T22:49:00;3.20;78.90
19174;DHT22;9719;49.322;8.536;2023-04-03T22:54:03;3.30;78.70
19174;DHT22;9719;49.322;8.536;2023-04-03T22:59:05;3.30;78.40
19174;DHT22;9719;49.322;8.536;2023-04-03T23:04:07;3.20;78.60
19174;DHT22;9719;49.322;8.536;2023-04-03T23:09:09;3.20;78.60
19174;DHT22;9719;49.322;8.536;2023-04-03T23:14:11;3.10;79.10
19174;DHT22;9719;49.322;8.536;2023-04-03T23:19:14;3.00;78.70
19174;DHT22;9719;49.322;8.536;2023-04-03T23:24:16;3.00;79.60
19174;DHT22;9719;49.322;8.536;2023-04-03T23:29:19;2.90;79.60
19174;DHT22;9719;49.322;8.536;2023-04-03T23:34:22;2.80;79.80
19174;DHT22;9719;49.322;8.536;2023-04-03T23:39:24;2.80;80.00
19174;DHT22;9719;49.322;8.536;2023-04-03T23:44:26;2.80;79.70
19174;DHT22;9719;49.322;8.536;2023-04-03T23:49:29;2.70;81.40
19174;DHT22;9719;49.322;8.536;2023-04-03T23:54:31;2.60;80.80
19174;DHT22;9719;49.322;8.536;2023-04-03T23:59:33;2.50;80.80
